createdAt,value
2017-02-14T00:00:16.946Z,23.64
2017-02-14T00:00:45.040Z,23.6
2017-02-14T00:01:13.167Z,23.6
2017-02-14T00:01:41.359Z,23.67
2017-02-14T00:02:09.484Z,23.56
2017-02-14T00:02:37.455Z,23.6
2017-02-14T00:03:05.432Z,23.59
2017-02-14T00:03:33.567Z,23.57
2017-02-14T00:04:01.823Z,23.62
2017-02-14T00:04:30.143Z,23.6
2017-02-14T00:04:58.280Z,23.67
2017-02-14T00:05:26.426Z,23.67
2017-02-14T00:05:54.455Z,23.7
2017-02-14T00:06:22.627Z,23.64
2017-02-14T00:06:50.616Z,23.64
2017-02-14T00:07:18.744Z,23.67
2017-02-14T00:07:46.762Z,23.74
2017-02-14T00:08:15.003Z,23.67
2017-02-14T00:08:43.179Z,23.67
2017-02-14T00:09:11.361Z,23.62
2017-02-14T00:09:39.358Z,23.66
2017-02-14T00:10:07.345Z,23.64
2017-02-14T00:10:35.382Z,23.6
2017-02-14T00:11:03.452Z,23.6
2017-02-14T00:11:31.441Z,23.62
2017-02-14T00:11:59.373Z,23.64
2017-02-14T00:12:27.490Z,23.6
2017-02-14T00:12:55.634Z,23.62
2017-02-14T00:13:23.789Z,23.64
2017-02-14T00:13:51.811Z,23.63
2017-02-14T00:14:20.195Z,23.6
2017-02-14T00:14:48.356Z,23.63
2017-02-14T00:15:16.274Z,23.66
2017-02-14T00:15:44.364Z,23.62
2017-02-14T00:16:12.489Z,23.57
2017-02-14T00:16:40.630Z,23.55
2017-02-14T00:17:08.742Z,23.52
2017-02-14T00:17:36.862Z,23.56
2017-02-14T00:18:05.056Z,23.5
2017-02-14T00:18:33.101Z,23.57
2017-02-14T00:19:01.273Z,23.53
2017-02-14T00:19:29.436Z,23.45
2017-02-14T00:19:57.612Z,23.59
2017-02-14T00:20:25.649Z,23.55
2017-02-14T00:20:53.738Z,23.52
2017-02-14T00:21:21.827Z,23.53
2017-02-14T00:21:49.942Z,23.45
2017-02-14T00:22:17.977Z,23.44
2017-02-14T00:22:46.013Z,23.44
2017-02-14T00:23:14.159Z,23.45
2017-02-14T00:23:42.192Z,23.41
2017-02-14T00:24:10.293Z,23.44
2017-02-14T00:24:38.705Z,23.41
2017-02-14T00:25:06.727Z,23.44
2017-02-14T00:25:34.843Z,23.55
2017-02-14T00:26:02.940Z,23.41
2017-02-14T00:26:30.916Z,23.41
2017-02-14T00:26:59.022Z,23.53
2017-02-14T00:27:27.115Z,23.48
2017-02-14T00:27:55.226Z,23.52
2017-02-14T00:28:23.438Z,23.52
2017-02-14T00:28:51.553Z,23.59
2017-02-14T00:29:19.673Z,23.52
2017-02-14T00:29:47.814Z,23.57
2017-02-14T00:30:15.932Z,23.53
2017-02-14T00:30:44.099Z,23.59
2017-02-14T00:31:12.287Z,23.57
2017-02-14T00:31:40.473Z,23.6
2017-02-14T00:32:08.670Z,23.59
2017-02-14T00:32:36.788Z,23.5
2017-02-14T00:33:05.019Z,23.62
2017-02-14T00:33:33.210Z,23.59
2017-02-14T00:34:01.295Z,23.6
2017-02-14T00:34:29.523Z,23.63
2017-02-14T00:34:57.690Z,23.55
2017-02-14T00:35:25.901Z,23.59
2017-02-14T00:35:53.978Z,23.52
2017-02-14T00:36:22.115Z,23.56
2017-02-14T00:36:50.047Z,23.55
2017-02-14T00:37:18.175Z,23.47
2017-02-14T00:37:46.111Z,23.47
2017-02-14T00:38:14.319Z,23.52
2017-02-14T00:38:42.409Z,23.53
2017-02-14T00:39:10.457Z,23.62
2017-02-14T00:39:38.764Z,23.56
2017-02-14T00:40:06.981Z,23.62
2017-02-14T00:40:35.085Z,23.55
2017-02-14T00:41:03.249Z,23.55
2017-02-14T00:41:31.274Z,23.56
2017-02-14T00:41:59.292Z,23.52
2017-02-14T00:42:27.486Z,23.57
2017-02-14T00:42:55.501Z,23.55
2017-02-14T00:43:23.568Z,23.45
2017-02-14T00:43:51.663Z,23.41
2017-02-14T00:44:19.887Z,23.53
2017-02-14T00:44:48.144Z,23.55
2017-02-14T00:45:16.337Z,23.5
2017-02-14T00:45:44.518Z,23.55
2017-02-14T00:46:12.551Z,23.57
2017-02-14T00:46:40.605Z,23.62
2017-02-14T00:47:08.709Z,23.63
2017-02-14T00:47:36.803Z,23.59
2017-02-14T00:48:04.920Z,23.57
2017-02-14T00:48:33.070Z,23.57
2017-02-14T00:49:01.182Z,23.53
2017-02-14T00:49:29.273Z,23.57
2017-02-14T00:49:57.404Z,23.55
2017-02-14T00:50:25.402Z,23.6
2017-02-14T00:50:53.564Z,23.59
2017-02-14T00:51:21.670Z,23.6
2017-02-14T00:51:49.843Z,23.6
2017-02-14T00:52:17.804Z,23.62
2017-02-14T00:52:45.829Z,23.53
2017-02-14T00:53:13.932Z,23.62
2017-02-14T00:53:42.159Z,23.59
2017-02-14T00:54:10.137Z,23.62
2017-02-14T00:54:38.255Z,23.67
2017-02-14T00:55:06.558Z,23.72
2017-02-14T00:55:34.766Z,23.72
2017-02-14T00:56:02.784Z,23.74
2017-02-14T00:56:30.849Z,23.6
2017-02-14T00:56:58.952Z,23.71
2017-02-14T00:57:26.967Z,23.74
2017-02-14T00:57:55.044Z,23.67
2017-02-14T00:58:22.981Z,23.66
2017-02-14T00:58:51.197Z,23.6
2017-02-14T00:59:19.286Z,23.63
2017-02-14T00:59:47.699Z,23.6
2017-02-14T01:00:15.965Z,23.62
2017-02-14T01:00:44.096Z,23.63
2017-02-14T01:01:12.334Z,23.62
2017-02-14T01:01:40.314Z,23.7
2017-02-14T01:02:08.322Z,23.64
2017-02-14T01:02:36.555Z,23.66
2017-02-14T01:03:04.906Z,23.63
2017-02-14T01:03:33.058Z,23.57
2017-02-14T01:04:01.247Z,23.6
2017-02-14T01:04:29.402Z,23.64
2017-02-14T01:04:57.797Z,23.64
2017-02-14T01:05:25.734Z,23.64
2017-02-14T01:05:53.854Z,23.62
2017-02-14T01:06:22.019Z,23.63
2017-02-14T01:06:50.142Z,23.62
2017-02-14T01:07:18.258Z,23.57
2017-02-14T01:07:46.372Z,23.63
2017-02-14T01:08:14.518Z,23.6
2017-02-14T01:08:42.539Z,23.62
2017-02-14T01:09:10.641Z,23.56
2017-02-14T01:09:38.696Z,23.62
2017-02-14T01:10:07.123Z,23.57
2017-02-14T01:10:35.296Z,23.62
2017-02-14T01:11:03.308Z,23.62
2017-02-14T01:11:31.460Z,23.62
2017-02-14T01:11:59.512Z,23.57
2017-02-14T01:12:27.644Z,23.63
2017-02-14T01:12:55.671Z,23.62
2017-02-14T01:13:23.747Z,23.59
2017-02-14T01:13:51.785Z,23.62
2017-02-14T01:14:19.984Z,23.52
2017-02-14T01:14:48.145Z,23.6
2017-02-14T01:15:16.627Z,23.64
2017-02-14T01:15:44.851Z,23.63
2017-02-14T01:16:13.018Z,23.62
2017-02-14T01:16:41.066Z,23.66
2017-02-14T01:17:09.201Z,23.64
2017-02-14T01:17:37.343Z,23.7
2017-02-14T01:18:05.489Z,23.74
2017-02-14T01:18:33.654Z,23.72
2017-02-14T01:19:01.841Z,23.64
2017-02-14T01:19:29.902Z,23.67
2017-02-14T01:19:57.992Z,23.74
2017-02-14T01:20:26.416Z,23.75
2017-02-14T01:20:54.482Z,23.7
2017-02-14T01:21:22.649Z,23.67
2017-02-14T01:21:50.802Z,23.72
2017-02-14T01:22:18.931Z,23.67
2017-02-14T01:22:46.917Z,23.74
2017-02-14T01:23:14.967Z,23.72
2017-02-14T01:23:43.039Z,23.71
2017-02-14T01:24:11.269Z,23.66
2017-02-14T01:24:39.409Z,23.71
2017-02-14T01:25:07.419Z,23.7
2017-02-14T01:25:35.648Z,23.67
2017-02-14T01:26:03.750Z,23.71
2017-02-14T01:26:31.889Z,23.7
2017-02-14T01:27:00.089Z,23.72
2017-02-14T01:27:28.279Z,23.66
2017-02-14T01:27:56.389Z,23.7
2017-02-14T01:28:24.266Z,23.55
2017-02-14T01:28:52.303Z,23.63
2017-02-14T01:29:20.346Z,23.64
2017-02-14T01:29:48.373Z,23.66
2017-02-14T01:30:16.515Z,23.57
2017-02-14T01:30:44.437Z,23.55
2017-02-14T01:31:12.461Z,23.55
2017-02-14T01:31:40.489Z,23.52
2017-02-14T01:32:08.551Z,23.55
2017-02-14T01:32:36.765Z,23.59
2017-02-14T01:33:05.065Z,23.5
2017-02-14T01:33:33.276Z,23.55
2017-02-14T01:34:01.434Z,23.5
2017-02-14T01:34:29.581Z,23.55
2017-02-14T01:34:57.680Z,23.52
2017-02-14T01:35:25.948Z,23.57
2017-02-14T01:35:54.017Z,23.56
2017-02-14T01:36:22.185Z,23.56
2017-02-14T01:36:50.164Z,23.66
2017-02-14T01:37:18.354Z,23.63
2017-02-14T01:37:46.588Z,23.57
2017-02-14T01:38:14.749Z,23.62
2017-02-14T01:38:42.788Z,23.56
2017-02-14T01:39:10.804Z,23.63
2017-02-14T01:39:38.929Z,23.64
2017-02-14T01:40:06.974Z,23.57
2017-02-14T01:40:35.088Z,23.62
2017-02-14T01:41:03.309Z,23.67
2017-02-14T01:41:31.515Z,23.6
2017-02-14T01:41:59.477Z,23.67
2017-02-14T01:42:27.704Z,23.72
2017-02-14T01:42:55.722Z,23.7
2017-02-14T01:43:23.780Z,23.7
2017-02-14T01:43:51.917Z,23.67
2017-02-14T01:44:19.896Z,23.72
2017-02-14T01:44:47.867Z,23.72
2017-02-14T01:45:15.938Z,23.66
2017-02-14T01:45:44.294Z,23.66
2017-02-14T01:46:12.386Z,23.7
2017-02-14T01:46:40.504Z,23.71
2017-02-14T01:47:08.658Z,23.74
2017-02-14T01:47:36.748Z,23.77
2017-02-14T01:48:04.948Z,23.74
2017-02-14T01:48:32.998Z,23.7
2017-02-14T01:49:01.088Z,23.67
2017-02-14T01:49:29.158Z,23.72
2017-02-14T01:49:57.258Z,23.77
2017-02-14T01:50:25.484Z,23.7
2017-02-14T01:50:53.710Z,23.72
2017-02-14T01:51:21.806Z,23.79
2017-02-14T01:51:49.825Z,23.79
2017-02-14T01:52:18.025Z,23.78
2017-02-14T01:52:46.176Z,23.71
2017-02-14T01:53:14.307Z,23.71
2017-02-14T01:53:42.434Z,23.67
2017-02-14T01:54:10.468Z,23.74
2017-02-14T01:54:38.537Z,23.7
2017-02-14T01:55:06.582Z,23.71
2017-02-14T01:55:34.627Z,23.66
2017-02-14T01:56:02.804Z,23.75
2017-02-14T01:56:30.894Z,23.75
2017-02-14T01:56:58.996Z,23.71
2017-02-14T01:57:27.094Z,23.78
2017-02-14T01:57:55.208Z,23.78
2017-02-14T01:58:23.365Z,23.66
2017-02-14T01:58:51.482Z,23.78
2017-02-14T01:59:19.428Z,23.75
2017-02-14T01:59:47.496Z,23.71
2017-02-14T02:00:15.463Z,23.72
2017-02-14T02:00:43.543Z,23.71
2017-02-14T02:01:11.775Z,23.72
2017-02-14T02:01:39.826Z,23.63
2017-02-14T02:02:07.975Z,23.6
2017-02-14T02:02:36.016Z,23.62
2017-02-14T02:03:04.113Z,23.64
2017-02-14T02:03:32.046Z,23.62
2017-02-14T02:04:00.252Z,23.59
2017-02-14T02:04:28.272Z,23.56
2017-02-14T02:04:56.311Z,23.62
2017-02-14T02:05:24.823Z,23.59
2017-02-14T02:05:52.976Z,23.55
2017-02-14T02:06:21.115Z,23.57
2017-02-14T02:06:49.199Z,23.62
2017-02-14T02:07:17.410Z,23.56
2017-02-14T02:07:45.507Z,23.5
2017-02-14T02:08:13.570Z,23.42
2017-02-14T02:08:42.005Z,23.41
2017-02-14T02:09:10.149Z,23.38
2017-02-14T02:09:38.276Z,23.4
2017-02-14T02:10:06.529Z,23.44
2017-02-14T02:10:34.770Z,23.45
2017-02-14T02:11:02.845Z,23.48
2017-02-14T02:11:30.777Z,23.38
2017-02-14T02:11:58.856Z,23.38
2017-02-14T02:12:26.883Z,23.34
2017-02-14T02:12:55.042Z,23.34
2017-02-14T02:13:23.219Z,23.32
2017-02-14T02:13:51.315Z,23.25
2017-02-14T02:14:19.299Z,23.28
2017-02-14T02:14:47.439Z,23.26
2017-02-14T02:15:15.566Z,23.24
2017-02-14T02:15:44.004Z,23.22
2017-02-14T02:16:12.202Z,23.26
2017-02-14T02:16:40.111Z,23.29
2017-02-14T02:17:08.303Z,23.25
2017-02-14T02:17:36.224Z,23.28
2017-02-14T02:18:04.364Z,23.24
2017-02-14T02:18:32.414Z,23.22
2017-02-14T02:19:00.570Z,23.28
2017-02-14T02:19:28.565Z,23.19
2017-02-14T02:19:56.446Z,23.22
2017-02-14T02:20:24.543Z,23.26
2017-02-14T02:20:52.915Z,23.19
2017-02-14T02:21:20.942Z,23.16
2017-02-14T02:21:49.095Z,23.19
2017-02-14T02:22:17.258Z,23.21
2017-02-14T02:22:45.305Z,23.19
2017-02-14T02:23:13.282Z,23.21
2017-02-14T02:23:41.414Z,23.26
2017-02-14T02:24:09.465Z,23.21
2017-02-14T02:24:37.675Z,23.28
2017-02-14T02:25:05.832Z,23.22
2017-02-14T02:25:33.745Z,23.26
2017-02-14T02:26:01.822Z,23.25
2017-02-14T02:26:29.793Z,23.26
2017-02-14T02:26:57.828Z,23.35
2017-02-14T02:27:25.851Z,23.29
2017-02-14T02:27:53.908Z,23.25
2017-02-14T02:28:22.069Z,23.25
2017-02-14T02:28:50.275Z,23.35
2017-02-14T02:29:18.373Z,23.28
2017-02-14T02:29:46.571Z,23.24
2017-02-14T02:30:14.683Z,23.34
2017-02-14T02:30:42.759Z,23.28
2017-02-14T02:31:11.083Z,23.24
2017-02-14T02:31:39.213Z,23.28
2017-02-14T02:32:07.389Z,23.22
2017-02-14T02:32:35.628Z,23.25
2017-02-14T02:33:03.834Z,23.22
2017-02-14T02:33:32.016Z,23.21
2017-02-14T02:34:00.228Z,23.16
2017-02-14T02:34:28.219Z,23.15
2017-02-14T02:34:56.313Z,23.15
2017-02-14T02:35:24.444Z,23.12
2017-02-14T02:35:52.895Z,23.07
2017-02-14T02:36:21.023Z,23.09
2017-02-14T02:36:49.152Z,23.15
2017-02-14T02:37:17.039Z,23.06
2017-02-14T02:37:45.084Z,23.09
2017-02-14T02:38:13.024Z,23.15
2017-02-14T02:38:41.163Z,23.15
2017-02-14T02:39:09.243Z,23.09
2017-02-14T02:39:37.343Z,23.1
2017-02-14T02:40:05.421Z,23.07
2017-02-14T02:40:33.424Z,23.03
2017-02-14T02:41:01.888Z,23.09
2017-02-14T02:41:29.802Z,23.12
2017-02-14T02:41:57.877Z,23.14
2017-02-14T02:42:26.104Z,23.18
2017-02-14T02:42:54.153Z,23.16
2017-02-14T02:43:22.279Z,23.16
2017-02-14T02:43:50.381Z,23.18
2017-02-14T02:44:18.479Z,23.32
2017-02-14T02:44:46.593Z,23.35
2017-02-14T02:45:14.721Z,23.29
2017-02-14T02:45:42.787Z,23.29
2017-02-14T02:46:11.147Z,23.34
2017-02-14T02:46:39.327Z,23.38
2017-02-14T02:47:07.438Z,23.34
2017-02-14T02:47:35.451Z,23.45
2017-02-14T02:48:03.498Z,23.35
2017-02-14T02:48:31.516Z,23.42
2017-02-14T02:48:59.695Z,23.35
2017-02-14T02:49:27.792Z,23.41
2017-02-14T02:49:55.880Z,23.45
2017-02-14T02:50:24.035Z,23.41
2017-02-14T02:50:52.234Z,23.42
2017-02-14T02:51:20.522Z,23.42
2017-02-14T02:51:48.760Z,23.44
2017-02-14T02:52:16.850Z,23.4
2017-02-14T02:52:44.987Z,23.4
2017-02-14T02:53:13.121Z,23.4
2017-02-14T02:53:41.217Z,23.41
2017-02-14T02:54:09.343Z,23.37
2017-02-14T02:54:37.361Z,23.4
2017-02-14T02:55:05.400Z,23.44
2017-02-14T02:55:33.517Z,23.42
2017-02-14T02:56:01.515Z,23.56
2017-02-14T02:56:29.743Z,23.57
2017-02-14T02:56:57.873Z,23.52
2017-02-14T02:57:25.958Z,23.55
2017-02-14T02:57:53.982Z,23.6
2017-02-14T02:58:22.211Z,23.62
2017-02-14T02:58:50.396Z,23.64
2017-02-14T02:59:18.477Z,23.7
2017-02-14T02:59:46.581Z,23.72
2017-02-14T03:00:14.619Z,23.7
2017-02-14T03:00:42.732Z,23.71
2017-02-14T03:01:11.084Z,23.7
2017-02-14T03:01:39.274Z,23.63
2017-02-14T03:02:07.480Z,23.62
2017-02-14T03:02:35.641Z,23.63
2017-02-14T03:03:03.701Z,23.64
2017-02-14T03:03:31.877Z,23.6
2017-02-14T03:04:00.010Z,23.64
2017-02-14T03:04:28.193Z,23.66
2017-02-14T03:04:56.240Z,23.66
2017-02-14T03:05:24.110Z,23.71
2017-02-14T03:05:52.336Z,23.64
2017-02-14T03:06:20.668Z,23.7
2017-02-14T03:06:48.834Z,23.72
2017-02-14T03:07:16.839Z,23.64
2017-02-14T03:07:44.965Z,23.71
2017-02-14T03:08:12.973Z,23.7
2017-02-14T03:08:41.089Z,23.63
2017-02-14T03:09:09.030Z,23.71
2017-02-14T03:09:37.169Z,23.7
2017-02-14T03:10:05.227Z,23.71
2017-02-14T03:10:33.254Z,23.71
2017-02-14T03:11:01.282Z,23.7
2017-02-14T03:11:29.403Z,23.72
2017-02-14T03:11:57.429Z,23.7
2017-02-14T03:12:25.584Z,23.7
2017-02-14T03:12:53.732Z,23.66
2017-02-14T03:13:21.718Z,23.75
2017-02-14T03:13:49.845Z,23.71
2017-02-14T03:14:18.069Z,23.7
2017-02-14T03:14:46.275Z,23.66
2017-02-14T03:15:14.275Z,23.72
2017-02-14T03:15:42.227Z,23.7
2017-02-14T03:16:10.298Z,23.77
2017-02-14T03:16:38.499Z,23.7
2017-02-14T03:17:06.629Z,23.66
2017-02-14T03:17:34.737Z,23.71
2017-02-14T03:18:02.865Z,23.64
2017-02-14T03:18:31.005Z,23.63
2017-02-14T03:18:59.181Z,23.6
2017-02-14T03:19:27.355Z,23.62
2017-02-14T03:20:38.510Z,23.7
2017-02-14T03:23:06.191Z,23.57
2017-02-14T03:23:34.419Z,23.57
2017-02-14T03:24:02.569Z,23.59
2017-02-14T03:24:30.882Z,23.53
2017-02-14T03:24:59.016Z,23.57
2017-02-14T03:25:27.164Z,23.6
2017-02-14T03:25:55.549Z,23.55
2017-02-14T03:26:23.832Z,23.38
2017-02-14T03:26:52.075Z,23.4
2017-02-14T03:27:20.273Z,23.38
2017-02-14T03:27:48.517Z,23.47
2017-02-14T03:28:16.644Z,23.42
2017-02-14T03:28:46.094Z,23.42
2017-02-14T03:29:14.186Z,23.44
2017-02-14T03:29:42.256Z,23.38
2017-02-14T03:30:10.416Z,23.44
2017-02-14T03:30:38.701Z,23.44
2017-02-14T03:31:09.955Z,23.38
2017-02-14T03:31:38.197Z,23.42
2017-02-14T03:32:06.447Z,23.44
2017-02-14T03:32:34.870Z,23.42
2017-02-14T03:33:03.122Z,23.35
2017-02-14T03:33:31.444Z,23.41
2017-02-14T03:33:59.662Z,23.34
2017-02-14T03:34:27.911Z,23.38
2017-02-14T03:34:56.111Z,23.37
2017-02-14T03:35:24.349Z,23.38
2017-02-14T03:35:52.510Z,23.37
2017-02-14T03:36:20.817Z,23.35
2017-02-14T03:36:49.014Z,23.38
2017-02-14T03:37:17.244Z,23.41
2017-02-14T03:37:45.743Z,23.42
2017-02-14T03:38:14.192Z,23.44
2017-02-14T03:38:42.294Z,23.42
2017-02-14T03:39:10.329Z,23.41
2017-02-14T03:39:38.615Z,23.44
2017-02-14T03:40:06.885Z,23.41
2017-02-14T03:40:35.198Z,23.4
2017-02-14T03:41:03.593Z,23.32
2017-02-14T03:41:31.967Z,23.44
2017-02-14T03:42:00.225Z,23.42
2017-02-14T03:42:28.280Z,23.34
2017-02-14T03:42:56.420Z,23.26
2017-02-14T03:43:24.582Z,23.21
2017-02-14T03:43:52.614Z,23.32
2017-02-14T03:44:20.611Z,23.21
2017-02-14T03:44:48.587Z,23.26
2017-02-14T03:45:16.813Z,23.22
2017-02-14T03:45:45.129Z,23.25
2017-02-14T03:46:13.533Z,23.19
2017-02-14T03:46:41.730Z,23.15
2017-02-14T03:47:10.038Z,23.15
2017-02-14T03:47:38.145Z,23.16
2017-02-14T03:48:06.266Z,23.09
2017-02-14T03:48:34.485Z,23.12
2017-02-14T03:49:02.601Z,23.15
2017-02-14T03:49:31.004Z,23.15
2017-02-14T03:49:59.320Z,23.12
2017-02-14T03:50:27.544Z,23.18
2017-02-14T03:50:55.672Z,23.16
2017-02-14T03:51:23.936Z,23.26
2017-02-14T03:51:52.138Z,23.22
2017-02-14T03:52:20.340Z,23.35
2017-02-14T03:52:48.450Z,23.24
2017-02-14T03:53:16.644Z,23.22
2017-02-14T03:53:44.806Z,23.32
2017-02-14T03:54:12.932Z,23.42
2017-02-14T03:54:41.066Z,23.41
2017-02-14T03:55:09.274Z,23.4
2017-02-14T03:55:37.523Z,23.52
2017-02-14T03:56:05.721Z,23.53
2017-02-14T03:56:33.713Z,23.59
2017-02-14T03:57:02.228Z,23.55
2017-02-14T03:57:30.484Z,23.56
2017-02-14T03:57:58.633Z,23.56
2017-02-14T03:58:26.798Z,23.56
2017-02-14T03:58:54.937Z,23.66
2017-02-14T03:59:23.133Z,23.67
2017-02-14T03:59:51.337Z,23.66
2017-02-14T04:00:19.534Z,23.66
2017-02-14T04:00:47.483Z,23.57
2017-02-14T04:01:15.814Z,23.63
2017-02-14T04:01:44.114Z,23.57
2017-02-14T04:02:12.267Z,23.6
2017-02-14T04:02:40.384Z,23.59
2017-02-14T04:03:08.601Z,23.55
2017-02-14T04:03:36.820Z,23.55
2017-02-14T04:04:05.070Z,23.62
2017-02-14T04:04:33.269Z,23.6
2017-02-14T04:05:01.391Z,23.63
2017-02-14T04:05:29.708Z,23.71
2017-02-14T04:05:57.858Z,23.74
2017-02-14T04:06:25.790Z,23.74
2017-02-14T04:06:54.021Z,23.79
2017-02-14T04:07:22.031Z,23.81
2017-02-14T04:07:50.207Z,23.81
2017-02-14T04:08:18.400Z,23.82
2017-02-14T04:08:46.602Z,23.71
2017-02-14T04:09:14.909Z,23.75
2017-02-14T04:09:43.201Z,23.7
2017-02-14T04:10:11.411Z,23.71
2017-02-14T04:10:39.624Z,23.67
2017-02-14T04:11:07.784Z,23.7
2017-02-14T04:11:35.927Z,23.67
2017-02-14T04:12:04.164Z,23.78
2017-02-14T04:12:32.344Z,23.7
2017-02-14T04:13:00.502Z,23.72
2017-02-14T04:13:28.681Z,23.71
2017-02-14T04:13:56.909Z,23.75
2017-02-14T04:14:25.039Z,23.67
2017-02-14T04:14:53.191Z,23.66
2017-02-14T04:15:21.395Z,23.64
2017-02-14T04:15:49.658Z,23.7
2017-02-14T04:16:17.894Z,23.62
2017-02-14T04:16:46.174Z,23.74
2017-02-14T04:17:14.636Z,23.67
2017-02-14T04:17:42.890Z,23.71
2017-02-14T04:18:11.027Z,23.72
2017-02-14T04:18:39.145Z,23.77
2017-02-14T04:19:07.373Z,23.7
2017-02-14T04:19:35.574Z,23.72
2017-02-14T04:20:03.787Z,23.78
2017-02-14T04:20:32.077Z,23.66
2017-02-14T04:21:00.114Z,23.75
2017-02-14T04:21:28.291Z,23.71
2017-02-14T04:21:56.382Z,23.71
2017-02-14T04:22:24.591Z,23.6
2017-02-14T04:22:52.933Z,23.62
2017-02-14T04:23:21.046Z,23.6
2017-02-14T04:23:49.350Z,23.63
2017-02-14T04:24:17.522Z,23.63
2017-02-14T04:24:45.709Z,23.57
2017-02-14T04:25:13.900Z,23.56
2017-02-14T04:25:41.926Z,23.59
2017-02-14T04:26:10.247Z,23.56
2017-02-14T04:26:38.436Z,23.59
2017-02-14T04:27:06.862Z,23.53
2017-02-14T04:27:35.136Z,23.53
2017-02-14T04:28:03.367Z,23.47
2017-02-14T04:28:31.583Z,23.47
2017-02-14T04:28:59.699Z,23.4
2017-02-14T04:29:28.036Z,23.42
2017-02-14T04:29:56.303Z,23.41
2017-02-14T04:30:24.543Z,23.45
2017-02-14T04:30:52.922Z,23.48
2017-02-14T04:31:21.064Z,23.38
2017-02-14T04:31:49.223Z,23.32
2017-02-14T04:32:17.642Z,23.34
2017-02-14T04:32:45.776Z,23.34
2017-02-14T04:33:14.057Z,23.41
2017-02-14T04:33:42.124Z,23.41
2017-02-14T04:34:10.359Z,23.41
2017-02-14T04:34:38.501Z,23.41
2017-02-14T04:35:06.782Z,23.4
2017-02-14T04:35:35.105Z,23.4
2017-02-14T04:36:03.394Z,23.47
2017-02-14T04:36:31.659Z,23.38
2017-02-14T04:36:59.892Z,23.42
2017-02-14T04:37:27.923Z,23.4
2017-02-14T04:37:56.031Z,23.4
2017-02-14T04:38:24.092Z,23.38
2017-02-14T04:38:52.337Z,23.37
2017-02-14T04:39:20.590Z,23.44
2017-02-14T04:39:48.758Z,23.42
2017-02-14T04:40:16.888Z,23.37
2017-02-14T04:40:45.138Z,23.38
2017-02-14T04:41:13.348Z,23.25
2017-02-14T04:41:41.546Z,23.28
2017-02-14T04:42:09.795Z,23.28
2017-02-14T04:42:38.004Z,23.26
2017-02-14T04:43:06.119Z,23.24
2017-02-14T04:43:34.245Z,23.32
2017-02-14T04:44:02.372Z,23.28
2017-02-14T04:44:30.559Z,23.29
2017-02-14T04:44:58.851Z,23.34
2017-02-14T04:45:27.068Z,23.24
2017-02-14T04:45:55.218Z,23.26
2017-02-14T04:46:23.327Z,23.32
2017-02-14T04:46:51.531Z,23.29
2017-02-14T04:47:19.874Z,23.38
2017-02-14T04:47:48.165Z,23.38
2017-02-14T04:48:16.320Z,23.45
2017-02-14T04:48:44.564Z,23.41
2017-02-14T04:49:12.736Z,23.44
2017-02-14T04:49:41.039Z,23.48
2017-02-14T04:50:09.089Z,23.56
2017-02-14T04:50:37.362Z,23.55
2017-02-14T04:51:05.650Z,23.52
2017-02-14T04:51:33.947Z,23.59
2017-02-14T04:52:02.008Z,23.53
2017-02-14T04:52:30.305Z,23.55
2017-02-14T04:52:58.578Z,23.48
2017-02-14T04:53:26.776Z,23.55
2017-02-14T04:53:54.981Z,23.56
2017-02-14T04:54:23.183Z,23.53
2017-02-14T04:54:51.389Z,23.48
2017-02-14T04:55:19.664Z,23.59
2017-02-14T04:55:47.785Z,23.56
2017-02-14T04:56:15.912Z,23.5
2017-02-14T04:56:44.223Z,23.56
2017-02-14T04:57:12.780Z,23.56
2017-02-14T04:57:41.034Z,23.53
2017-02-14T04:58:09.136Z,23.44
2017-02-14T04:58:37.253Z,23.4
2017-02-14T04:59:05.455Z,23.4
2017-02-14T04:59:33.632Z,23.44
2017-02-14T05:00:01.914Z,23.45
2017-02-14T05:00:30.168Z,23.29
2017-02-14T05:00:58.232Z,23.4
2017-02-14T05:01:26.333Z,23.26
2017-02-14T05:01:54.612Z,23.26
2017-02-14T05:02:22.891Z,23.4
2017-02-14T05:02:51.176Z,23.38
2017-02-14T05:03:19.455Z,23.28
2017-02-14T05:03:47.667Z,23.32
2017-02-14T05:04:15.704Z,23.29
2017-02-14T05:04:44.071Z,23.29
2017-02-14T05:05:12.213Z,23.21
2017-02-14T05:05:40.409Z,23.22
2017-02-14T05:06:08.624Z,23.22
2017-02-14T05:06:36.846Z,23.19
2017-02-14T05:07:04.872Z,23.26
2017-02-14T05:07:33.239Z,23.34
2017-02-14T05:08:01.295Z,23.25
2017-02-14T05:08:29.421Z,23.25
2017-02-14T05:08:57.531Z,23.41
2017-02-14T05:09:25.852Z,23.29
2017-02-14T05:09:54.106Z,23.22
2017-02-14T05:10:22.310Z,23.26
2017-02-14T05:10:50.504Z,23.26
2017-02-14T05:11:18.740Z,23.41
2017-02-14T05:11:46.954Z,23.28
2017-02-14T05:12:15.089Z,23.32
2017-02-14T05:12:43.127Z,23.26
2017-02-14T05:13:11.306Z,23.28
2017-02-14T05:13:39.572Z,23.28
2017-02-14T05:14:07.809Z,23.28
2017-02-14T05:14:35.997Z,23.26
2017-02-14T05:15:04.157Z,23.34
2017-02-14T05:15:32.197Z,23.29
2017-02-14T05:16:00.506Z,23.32
2017-02-14T05:16:28.735Z,23.29
2017-02-14T05:16:56.831Z,23.22
2017-02-14T05:17:25.054Z,23.26
2017-02-14T05:17:53.321Z,23.26
2017-02-14T05:18:21.550Z,23.26
2017-02-14T05:18:49.864Z,23.35
2017-02-14T05:19:18.104Z,23.25
2017-02-14T05:19:46.307Z,23.24
2017-02-14T05:20:14.338Z,23.19
2017-02-14T05:20:42.555Z,23.22
2017-02-14T05:21:10.696Z,23.16
2017-02-14T05:21:38.786Z,23.15
2017-02-14T05:22:06.978Z,23.19
2017-02-14T05:22:35.348Z,23.15
2017-02-14T05:23:03.474Z,23.14
2017-02-14T05:23:31.653Z,23.16
2017-02-14T05:23:59.827Z,23.14
2017-02-14T05:24:28.147Z,23.15
2017-02-14T05:24:56.366Z,23.07
2017-02-14T05:25:24.284Z,23.03
2017-02-14T05:25:52.482Z,23.09
2017-02-14T05:26:20.688Z,23.04
2017-02-14T05:26:48.959Z,22.99
2017-02-14T05:27:17.190Z,22.96
2017-02-14T05:27:45.524Z,23.04
2017-02-14T05:28:13.744Z,22.91
2017-02-14T05:28:41.846Z,23.01
2017-02-14T05:29:10.131Z,22.97
2017-02-14T05:29:38.326Z,23.04
2017-02-14T05:30:06.614Z,23.04
2017-02-14T05:30:34.819Z,23.06
2017-02-14T05:31:03.017Z,23
2017-02-14T05:31:31.196Z,23
2017-02-14T05:31:59.109Z,23.03
2017-02-14T05:32:27.569Z,23.01
2017-02-14T05:32:55.703Z,22.92
2017-02-14T05:33:23.907Z,22.92
2017-02-14T05:33:52.156Z,22.94
2017-02-14T05:34:20.399Z,22.89
2017-02-14T05:34:48.551Z,22.88
2017-02-14T05:35:16.693Z,22.89
2017-02-14T05:35:44.918Z,22.89
2017-02-14T05:36:12.901Z,22.82
2017-02-14T05:36:41.002Z,22.78
2017-02-14T05:37:09.061Z,22.81
2017-02-14T05:37:37.278Z,22.73
2017-02-14T05:38:05.558Z,22.76
2017-02-14T05:38:33.686Z,22.7
2017-02-14T05:39:02.002Z,22.69
2017-02-14T05:39:30.156Z,22.66
2017-02-14T05:39:58.289Z,22.64
2017-02-14T05:40:26.390Z,22.64
2017-02-14T05:40:54.532Z,22.67
2017-02-14T05:41:22.641Z,22.54
2017-02-14T05:41:50.954Z,22.55
2017-02-14T05:42:19.172Z,22.57
2017-02-14T05:42:47.615Z,22.6
2017-02-14T05:43:15.922Z,22.54
2017-02-14T05:43:44.137Z,22.54
2017-02-14T05:44:12.333Z,22.54
2017-02-14T05:44:40.590Z,22.49
2017-02-14T05:45:08.756Z,22.52
2017-02-14T05:45:36.954Z,22.49
2017-02-14T05:46:05.079Z,22.41
2017-02-14T05:46:33.207Z,22.49
2017-02-14T05:47:01.444Z,22.51
2017-02-14T05:47:29.677Z,22.46
2017-02-14T05:47:58.160Z,22.42
2017-02-14T05:48:26.292Z,22.41
2017-02-14T05:48:54.556Z,22.38
2017-02-14T05:49:22.691Z,22.33
2017-02-14T05:49:50.896Z,22.34
2017-02-14T05:50:19.125Z,22.23
2017-02-14T05:50:47.406Z,22.23
2017-02-14T05:51:15.641Z,22.23
2017-02-14T05:51:43.831Z,22.27
2017-02-14T05:52:12.060Z,22.16
2017-02-14T05:52:40.152Z,22.14
2017-02-14T05:53:08.330Z,22.16
2017-02-14T05:53:36.586Z,22.08
2017-02-14T05:54:04.930Z,22.14
2017-02-14T05:54:33.121Z,22.15
2017-02-14T05:55:01.345Z,21.97
2017-02-14T05:55:29.525Z,22.07
2017-02-14T05:55:57.819Z,21.97
2017-02-14T05:56:25.933Z,21.96
2017-02-14T05:56:54.173Z,22.02
2017-02-14T05:57:22.392Z,22.02
2017-02-14T05:57:50.643Z,21.97
2017-02-14T05:58:18.831Z,21.97
2017-02-14T05:58:46.785Z,22.02
2017-02-14T05:59:14.977Z,21.96
2017-02-14T05:59:43.218Z,22.04
2017-02-14T06:00:11.513Z,22.02
2017-02-14T06:00:39.728Z,22.08
2017-02-14T06:01:07.948Z,22
2017-02-14T06:01:36.017Z,21.93
2017-02-14T06:02:04.356Z,22.15
2017-02-14T06:02:32.635Z,22.12
2017-02-14T06:03:00.784Z,22.15
2017-02-14T06:03:29.074Z,22.18
2017-02-14T06:03:57.274Z,22.14
2017-02-14T06:04:25.561Z,22.23
2017-02-14T06:04:53.728Z,22.18
2017-02-14T06:05:22.063Z,22.15
2017-02-14T06:05:50.258Z,22.22
2017-02-14T06:06:18.492Z,22.22
2017-02-14T06:06:46.679Z,22.23